createdAt,value
2022-09-15T00:00:29.495Z,97712.28
2022-09-15T00:02:56.234Z,97713.22
2022-09-15T00:05:23.007Z,97708.47
2022-09-15T00:07:49.570Z,97708.94
2022-09-15T00:10:17.411Z,97705.97
2022-09-15T00:12:44.434Z,97724.94
2022-09-15T00:15:14.810Z,97723.59
2022-09-15T00:17:43.044Z,97745.28
2022-09-15T00:20:10.538Z,97739.16
2022-09-15T00:22:37.407Z,97737.19
2022-09-15T00:25:04.238Z,97731.97
2022-09-15T00:27:32.124Z,97730.19
2022-09-15T00:29:58.784Z,97722.34
2022-09-15T00:32:25.679Z,97720.19
2022-09-15T00:34:53.486Z,97701.78
2022-09-15T00:37:20.908Z,97716.25
2022-09-15T00:39:47.749Z,97707.44
2022-09-15T00:42:19.656Z,97704.03
2022-09-15T00:44:50.062Z,97681.69
2022-09-15T00:47:20.017Z,97691.75
2022-09-15T00:49:52.473Z,97687.88
2022-09-15T00:52:31.818Z,97699.31
2022-09-15T00:55:32.095Z,97692.50
2022-09-15T00:58:04.046Z,97699.97
2022-09-15T01:00:30.672Z,97682.72
2022-09-15T01:02:57.553Z,97671.25
2022-09-15T01:05:30.115Z,97683.41
2022-09-15T01:08:01.943Z,97675.59
2022-09-15T01:10:34.712Z,97677.41
2022-09-15T01:13:07.153Z,97671.69
2022-09-15T01:15:36.537Z,97678.72
2022-09-15T01:18:22.021Z,97681.69
2022-09-15T01:21:06.347Z,97671.47
2022-09-15T01:23:35.861Z,97690.34
2022-09-15T01:26:18.738Z,97678.97
2022-09-15T01:28:45.267Z,97683.06
2022-09-15T01:31:23.428Z,97672.78
2022-09-15T01:34:16.690Z,97675.03
2022-09-15T01:36:54.251Z,97666.59
2022-09-15T01:39:27.196Z,97674.53
2022-09-15T01:42:07.818Z,97663.00
2022-09-15T01:44:40.396Z,97661.47
2022-09-15T01:47:09.950Z,97668.38
2022-09-15T01:49:44.465Z,97656.13
2022-09-15T01:52:11.337Z,97651.72
2022-09-15T01:54:48.797Z,97638.03
2022-09-15T01:57:22.723Z,97649.09
2022-09-15T01:59:50.413Z,97644.84
2022-09-15T02:02:23.994Z,97653.03
2022-09-15T02:04:55.399Z,97641.63
2022-09-15T02:07:45.403Z,97654.34
2022-09-15T02:10:34.559Z,97653.69
2022-09-15T02:13:16.899Z,97639.66
2022-09-15T02:15:48.414Z,97638.03
2022-09-15T02:18:23.804Z,97623.75
2022-09-15T02:20:54.861Z,97635.31
2022-09-15T02:23:27.611Z,97648.66
2022-09-15T02:25:59.841Z,97638.13
2022-09-15T02:28:30.074Z,97642.66
2022-09-15T02:30:59.212Z,97640.22
2022-09-15T02:33:32.366Z,97640.38
2022-09-15T02:35:59.812Z,97634.53
2022-09-15T02:38:29.577Z,97642.50
2022-09-15T02:40:57.022Z,97642.00
2022-09-15T02:43:23.651Z,97625.53
2022-09-15T02:45:50.764Z,97630.91
2022-09-15T02:48:17.672Z,97621.66
2022-09-15T02:50:44.242Z,97623.28
2022-09-15T02:53:10.741Z,97616.28
2022-09-15T02:55:37.378Z,97596.09
2022-09-15T02:58:04.182Z,97607.00
2022-09-15T03:00:31.157Z,97595.72
2022-09-15T03:02:58.333Z,97597.19
2022-09-15T03:05:28.730Z,97592.16
2022-09-15T03:07:56.125Z,97576.66
2022-09-15T03:10:24.476Z,97576.66
2022-09-15T03:12:53.802Z,97573.88
2022-09-15T03:15:25.529Z,97571.00
2022-09-15T03:17:53.465Z,97567.41
2022-09-15T03:20:23.556Z,97562.09
2022-09-15T03:22:50.629Z,97558.19
2022-09-15T03:25:18.064Z,97559.34
2022-09-15T03:27:44.972Z,97554.28
2022-09-15T03:30:12.300Z,97540.78
2022-09-15T03:32:38.900Z,97545.00
2022-09-15T03:35:06.847Z,97549.28
2022-09-15T03:37:33.835Z,97532.00
2022-09-15T03:40:00.466Z,97545.69
2022-09-15T03:42:27.144Z,97551.88
2022-09-15T03:44:53.693Z,97543.44
2022-09-15T03:47:20.400Z,97554.50
2022-09-15T03:49:47.564Z,97554.00
2022-09-15T03:52:14.114Z,97556.31
2022-09-15T03:54:40.726Z,97554.16
2022-09-15T03:57:07.646Z,97553.19
2022-09-15T03:59:34.333Z,97545.22
2022-09-15T04:02:00.939Z,97548.97
2022-09-15T04:04:27.502Z,97546.53
2022-09-15T04:06:54.089Z,97538.88
2022-09-15T04:09:21.510Z,97541.03
2022-09-15T04:11:48.185Z,97545.38
2022-09-15T04:14:14.824Z,97529.13
2022-09-15T04:16:41.557Z,97539.19
2022-09-15T04:19:08.429Z,97522.72
2022-09-15T04:21:35.042Z,97523.56
2022-09-15T04:24:01.867Z,97513.34
2022-09-15T04:26:31.363Z,97512.66
2022-09-15T04:29:03.075Z,97508.47
2022-09-15T04:31:31.763Z,97510.06
2022-09-15T04:33:58.552Z,97493.16
2022-09-15T04:36:28.236Z,97479.47
2022-09-15T04:38:56.222Z,97492.72
2022-09-15T04:41:24.471Z,97506.75
2022-09-15T04:43:51.551Z,97517.16
2022-09-15T04:46:18.557Z,97497.28
2022-09-15T04:48:46.329Z,97510.31
2022-09-15T04:51:15.923Z,97522.50
2022-09-15T04:53:43.490Z,97524.28
2022-09-15T04:56:15.836Z,97520.72
2022-09-15T04:58:45.249Z,97519.59
2022-09-15T05:01:14.894Z,97519.28
2022-09-15T05:03:42.293Z,97527.53
2022-09-15T05:06:11.310Z,97530.16
2022-09-15T05:08:38.424Z,97529.84
2022-09-15T05:11:08.306Z,97534.53
2022-09-15T05:13:35.909Z,97536.97
2022-09-15T05:16:29.453Z,97545.28
2022-09-15T05:18:58.485Z,97544.00
2022-09-15T05:21:26.764Z,97549.66
2022-09-15T05:23:53.982Z,97544.78
2022-09-15T05:26:23.582Z,97553.91
2022-09-15T05:28:50.270Z,97547.91
2022-09-15T05:31:23.831Z,97555.72
2022-09-15T05:33:51.524Z,97551.97
2022-09-15T05:36:20.280Z,97559.13
2022-09-15T05:38:47.181Z,97561.75
2022-09-15T05:41:16.914Z,97566.00
2022-09-15T05:43:45.088Z,97567.78
2022-09-15T05:46:12.535Z,97563.56
2022-09-15T05:48:39.506Z,97557.03
2022-09-15T05:51:06.786Z,97570.69
2022-09-15T05:53:35.484Z,97578.69
2022-09-15T05:56:07.638Z,97569.56
2022-09-15T05:58:34.583Z,97580.94
2022-09-15T06:01:07.965Z,97580.28
2022-09-15T06:03:35.667Z,97576.69
2022-09-15T06:06:03.851Z,97578.81
2022-09-15T06:08:35.451Z,97562.34
2022-09-15T06:11:07.890Z,97578.63
2022-09-15T06:13:34.612Z,97582.03
2022-09-15T06:16:07.223Z,97583.78
2022-09-15T06:18:37.088Z,97579.06
2022-09-15T06:21:05.362Z,97586.03
2022-09-15T06:23:32.456Z,97584.31
2022-09-15T06:26:06.867Z,97579.94
2022-09-15T06:28:33.843Z,97586.03
2022-09-15T06:31:00.352Z,97586.84
2022-09-15T06:33:27.587Z,97595.13
2022-09-15T06:35:54.428Z,97589.41
2022-09-15T06:38:21.038Z,97581.72
2022-09-15T06:40:58.291Z,97583.97
2022-09-15T06:43:25.942Z,97587.56
2022-09-15T06:45:52.482Z,97585.44
2022-09-15T06:48:25.060Z,97593.56
2022-09-15T06:50:55.647Z,97597.59
2022-09-15T06:53:22.431Z,97604.63
2022-09-15T06:55:49.072Z,97601.84
2022-09-15T06:58:15.820Z,97608.53
2022-09-15T07:00:43.070Z,97612.63
2022-09-15T07:03:09.858Z,97624.34
2022-09-15T07:05:36.608Z,97612.59
2022-09-15T07:08:03.496Z,97618.16
2022-09-15T07:10:29.970Z,97610.63
2022-09-15T07:12:56.706Z,97607.66
2022-09-15T07:15:25.902Z,97605.97
2022-09-15T07:17:52.498Z,97600.53
2022-09-15T07:20:18.987Z,97614.06
2022-09-15T07:22:45.582Z,97615.53
2022-09-15T07:25:12.084Z,97624.16
2022-09-15T07:27:38.753Z,97609.97
2022-09-15T07:30:08.545Z,97630.97
2022-09-15T07:32:35.280Z,97626.19
2022-09-15T07:35:02.313Z,97613.16
2022-09-15T07:37:28.935Z,97629.75
2022-09-15T07:39:55.533Z,97630.66
2022-09-15T07:42:22.128Z,97615.34
2022-09-15T07:44:48.652Z,97636.66
2022-09-15T07:47:15.210Z,97634.00
2022-09-15T07:49:42.148Z,97633.66
2022-09-15T07:52:09.168Z,97631.97
2022-09-15T07:54:35.936Z,97636.97
2022-09-15T07:57:02.563Z,97621.97
2022-09-15T07:59:29.092Z,97627.94
2022-09-15T08:01:55.679Z,97632.47
2022-09-15T08:04:22.319Z,97634.00
2022-09-15T08:06:49.056Z,97616.59
2022-09-15T08:09:17.636Z,97635.47
2022-09-15T08:11:44.384Z,97635.56
2022-09-15T08:14:11.104Z,97635.38
2022-09-15T08:16:39.174Z,97631.88
2022-09-15T08:19:06.434Z,97637.28
2022-09-15T08:21:33.030Z,97638.88
2022-09-15T08:24:01.210Z,97640.81
2022-09-15T08:26:29.356Z,97631.69
2022-09-15T08:28:55.949Z,97630.06
2022-09-15T08:31:24.303Z,97629.22
2022-09-15T08:33:53.049Z,97638.31
2022-09-15T08:36:20.181Z,97635.16
2022-09-15T08:38:47.539Z,97643.09
2022-09-15T08:41:15.887Z,97628.56
2022-09-15T08:43:48.141Z,97629.72
2022-09-15T08:46:22.421Z,97625.91
2022-09-15T08:49:02.769Z,97624.91
2022-09-15T08:51:39.825Z,97628.91
2022-09-15T08:54:14.344Z,97622.47
2022-09-15T08:56:43.090Z,97610.75
2022-09-15T08:59:14.830Z,97608.66
2022-09-15T09:01:59.937Z,97615.16
2022-09-15T09:04:37.128Z,97615.25
2022-09-15T09:07:18.660Z,97614.13
2022-09-15T09:10:34.802Z,97611.16
2022-09-15T09:13:07.338Z,97592.13
2022-09-15T09:16:19.114Z,97602.28
2022-09-15T09:19:11.833Z,97596.94
2022-09-15T09:21:43.078Z,97598.09
2022-09-15T09:24:17.177Z,97592.38
2022-09-15T09:26:49.620Z,97587.03
2022-09-15T09:29:18.752Z,97585.41
2022-09-15T09:31:50.845Z,97577.94
2022-09-15T09:34:29.181Z,97581.78
2022-09-15T09:37:00.935Z,97570.84
2022-09-15T09:39:28.272Z,97572.97
2022-09-15T09:41:55.425Z,97568.19
2022-09-15T09:44:31.759Z,97545.59
2022-09-15T09:47:00.434Z,97548.91
2022-09-15T09:49:49.512Z,97567.06
2022-09-15T09:52:41.098Z,97567.13
2022-09-15T09:55:23.478Z,97554.75
2022-09-15T09:57:50.804Z,97567.53
2022-09-15T10:00:38.382Z,97564.00
2022-09-15T10:03:26.221Z,97562.41
2022-09-15T10:06:04.475Z,97554.38
2022-09-15T10:08:31.657Z,97545.84
2022-09-15T10:11:04.811Z,97540.94
2022-09-15T10:13:32.871Z,97538.81
2022-09-15T10:16:02.146Z,97530.78
2022-09-15T10:18:32.189Z,97523.72
2022-09-15T10:21:00.485Z,97525.19
2022-09-15T10:23:32.602Z,97520.59
2022-09-15T10:26:21.955Z,97516.59
2022-09-15T10:29:14.633Z,97513.41
2022-09-15T10:31:42.278Z,97513.41
2022-09-15T10:34:30.614Z,97499.53
2022-09-15T10:37:14.363Z,97505.41
2022-09-15T10:39:52.227Z,97498.75
2022-09-15T10:42:33.877Z,97501.81
2022-09-15T10:45:07.967Z,97496.59
2022-09-15T10:47:43.529Z,97499.03
2022-09-15T10:50:45.086Z,97498.59
2022-09-15T10:53:57.221Z,97497.78
2022-09-15T10:56:29.593Z,97490.31
2022-09-15T10:59:32.153Z,97491.53
2022-09-15T11:02:11.065Z,97480.09
2022-09-15T11:04:46.771Z,97487.75
2022-09-15T11:07:31.837Z,97483.72
2022-09-15T11:10:52.845Z,97484.13
2022-09-15T11:13:50.438Z,97469.19
2022-09-15T11:16:41.476Z,97470.19
2022-09-15T11:19:19.048Z,97466.13
2022-09-15T11:21:49.891Z,97452.19
2022-09-15T11:24:46.850Z,97455.59
2022-09-15T11:27:22.726Z,97450.75
2022-09-15T11:29:52.301Z,97451.16
2022-09-15T11:32:27.781Z,97440.84
2022-09-15T11:35:31.869Z,97449.53
2022-09-15T11:38:29.343Z,97436.78
2022-09-15T11:41:22.813Z,97431.34
2022-09-15T11:44:19.778Z,97417.44
2022-09-15T11:47:05.027Z,97420.63
2022-09-15T11:49:39.243Z,97418.16
2022-09-15T11:52:33.617Z,97421.00
2022-09-15T11:55:07.212Z,97407.22
2022-09-15T11:57:44.471Z,97416.66
2022-09-15T12:00:14.572Z,97417.19
2022-09-15T12:02:51.496Z,97403.03
2022-09-15T12:05:24.022Z,97412.91
2022-09-15T12:08:02.566Z,97410.69
2022-09-15T12:10:39.697Z,97404.63
2022-09-15T12:13:07.772Z,97407.44
2022-09-15T12:15:34.536Z,97401.38
2022-09-15T12:18:06.647Z,97411.47
2022-09-15T12:20:53.946Z,97395.47
2022-09-15T12:23:34.728Z,97395.44
2022-09-15T12:26:14.681Z,97383.50
2022-09-15T12:28:47.363Z,97378.59
2022-09-15T12:31:23.364Z,97371.09
2022-09-15T12:33:57.395Z,97376.91
2022-09-15T12:36:39.283Z,97382.94
2022-09-15T12:39:30.409Z,97385.19
2022-09-15T12:41:59.762Z,97388.03
2022-09-15T12:44:30.856Z,97383.41
2022-09-15T12:46:58.946Z,97370.66
2022-09-15T12:49:33.689Z,97378.97
2022-09-15T12:52:03.212Z,97358.66
2022-09-15T12:54:33.083Z,97366.28
2022-09-15T12:57:00.516Z,97368.84
2022-09-15T12:59:28.415Z,97362.97
2022-09-15T13:01:56.250Z,97359.00
2022-09-15T13:04:28.405Z,97361.19
2022-09-15T13:07:16.491Z,97357.53
2022-09-15T13:10:15.540Z,97354.63
2022-09-15T13:12:51.882Z,97358.41
2022-09-15T13:15:20.410Z,97361.00
2022-09-15T13:17:47.649Z,97358.97
2022-09-15T13:20:23.997Z,97361.00
2022-09-15T13:22:56.296Z,97355.78
2022-09-15T13:25:28.268Z,97361.50
2022-09-15T13:28:03.056Z,97357.19
2022-09-15T13:30:53.787Z,97360.88
2022-09-15T13:39:47.926Z,97337.03
2022-09-15T13:42:20.458Z,97338.63
2022-09-15T13:45:07.246Z,97332.91
2022-09-15T13:47:42.682Z,97337.50
2022-09-15T13:50:25.705Z,97336.84
2022-09-15T13:53:02.134Z,97328.13
2022-09-15T13:55:38.597Z,97318.81
2022-09-15T14:01:07.758Z,97323.16
2022-09-15T14:03:53.881Z,97322.84
2022-09-15T14:06:22.870Z,97313.31
2022-09-15T14:08:55.706Z,97309.28
2022-09-15T14:11:28.285Z,97309.66
2022-09-15T14:13:56.728Z,97317.69
2022-09-15T14:16:30.984Z,97318.63
2022-09-15T14:18:58.618Z,97311.19
2022-09-15T14:21:27.607Z,97312.59
2022-09-15T14:23:58.649Z,97311.69
2022-09-15T14:26:28.909Z,97303.31
2022-09-15T14:29:03.156Z,97305.28
2022-09-15T14:31:41.027Z,97290.00
2022-09-15T14:34:21.658Z,97291.00
2022-09-15T14:37:17.504Z,97290.69
2022-09-15T14:39:57.396Z,97279.56
2022-09-15T14:42:44.664Z,97281.88
2022-09-15T14:48:07.106Z,97278.31
2022-09-15T14:50:34.184Z,97282.44
2022-09-15T14:53:07.834Z,97291.75
2022-09-15T14:55:43.518Z,97282.53
2022-09-15T14:58:32.383Z,97277.69
2022-09-15T15:01:24.034Z,97275.38
2022-09-15T15:04:10.382Z,97279.03
2022-09-15T15:06:57.640Z,97276.88
2022-09-15T15:09:33.102Z,97273.44
2022-09-15T15:12:06.941Z,97270.94
2022-09-15T15:14:35.437Z,97260.41
2022-09-15T15:17:08.080Z,97261.97
2022-09-15T15:19:39.477Z,97269.47
2022-09-15T15:22:14.825Z,97262.56
2022-09-15T15:24:45.068Z,97260.84
2022-09-15T15:27:41.098Z,97270.34
2022-09-15T15:30:32.682Z,97264.13
2022-09-15T15:33:28.525Z,97264.28
2022-09-15T15:36:02.664Z,97267.13
2022-09-15T15:38:33.097Z,97265.19
2022-09-15T15:41:02.317Z,97256.66
2022-09-15T15:43:29.295Z,97259.53
2022-09-15T15:46:01.031Z,97261.38
2022-09-15T15:48:29.530Z,97265.03
2022-09-15T15:50:58.660Z,97271.94
2022-09-15T15:53:25.841Z,97276.28
2022-09-15T15:55:55.056Z,97271.44
2022-09-15T15:58:22.576Z,97266.53
2022-09-15T16:00:55.003Z,97266.16
2022-09-15T16:03:23.132Z,97273.75
2022-09-15T16:05:57.201Z,97265.69
2022-09-15T16:08:31.217Z,97265.34
2022-09-15T16:11:00.516Z,97270.34
2022-09-15T16:13:27.498Z,97271.84
2022-09-15T16:15:57.990Z,97279.16
2022-09-15T16:18:25.075Z,97272.72
2022-09-15T16:20:54.267Z,97273.75
2022-09-15T16:23:22.787Z,97268.94
2022-09-15T16:26:00.374Z,97272.72
2022-09-15T16:28:28.881Z,97277.44
2022-09-15T16:30:56.781Z,97275.25
2022-09-15T16:33:25.038Z,97271.22
2022-09-15T16:36:06.763Z,97273.28
2022-09-15T16:38:34.969Z,97270.47
2022-09-15T16:41:02.901Z,97272.97
2022-09-15T16:43:29.549Z,97254.47
2022-09-15T16:45:56.390Z,97270.22
2022-09-15T16:48:23.200Z,97266.44
2022-09-15T16:51:16.821Z,97273.72
2022-09-15T16:53:39.371Z,97264.31
2022-09-15T16:56:07.534Z,97274.38
2022-09-15T16:58:34.243Z,97285.53
2022-09-15T17:01:00.915Z,97280.34
2022-09-15T17:03:29.098Z,97281.81
2022-09-15T17:05:58.769Z,97279.47
2022-09-15T17:08:29.572Z,97278.75
2022-09-15T17:10:58.247Z,97286.06
2022-09-15T17:13:29.509Z,97278.41
2022-09-15T17:15:58.012Z,97289.94
2022-09-15T17:18:25.057Z,97283.25
2022-09-15T17:20:52.088Z,97286.66
2022-09-15T17:23:31.687Z,97287.25
2022-09-15T17:26:01.150Z,97290.69
2022-09-15T17:28:30.057Z,97283.81
2022-09-15T17:31:02.454Z,97285.59
2022-09-15T17:33:30.999Z,97289.06
2022-09-15T17:35:58.112Z,97287.72
2022-09-15T17:38:25.084Z,97290.50
2022-09-15T17:40:53.031Z,97288.09
2022-09-15T17:43:28.877Z,97295.41
2022-09-15T17:45:56.374Z,97290.97
2022-09-15T17:48:23.252Z,97303.50
2022-09-15T17:50:50.410Z,97300.66
2022-09-15T17:53:26.836Z,97300.28
2022-09-15T17:55:55.424Z,97296.63
2022-09-15T17:58:22.933Z,97304.72
2022-09-15T18:00:50.472Z,97301.09
2022-09-15T18:03:27.746Z,97302.50
2022-09-15T18:05:56.399Z,97303.91
2022-09-15T18:08:23.023Z,97319.50
2022-09-15T18:10:50.694Z,97313.66
2022-09-15T18:13:27.343Z,97312.44
2022-09-15T18:15:54.969Z,97306.59
2022-09-15T18:18:24.502Z,97306.81
2022-09-15T18:20:53.114Z,97312.84
2022-09-15T18:23:22.144Z,97315.69
2022-09-15T18:25:50.070Z,97315.47
2022-09-15T18:28:18.132Z,97320.72
2022-09-15T18:30:49.899Z,97335.03
2022-09-15T18:33:20.159Z,97322.34
2022-09-15T18:35:49.316Z,97320.91
2022-09-15T18:38:16.299Z,97321.31
2022-09-15T18:40:48.994Z,97327.56
2022-09-15T18:43:16.637Z,97326.91
2022-09-15T18:45:43.403Z,97335.00
2022-09-15T18:48:12.741Z,97345.91
2022-09-15T18:50:40.788Z,97336.03
2022-09-15T18:53:07.701Z,97346.09
2022-09-15T18:55:34.593Z,97352.38
2022-09-15T18:58:02.393Z,97337.06
2022-09-15T19:00:29.744Z,97344.09
2022-09-15T19:03:01.032Z,97347.91
2022-09-15T19:05:29.485Z,97349.72
2022-09-15T19:07:56.856Z,97347.66
2022-09-15T19:10:24.570Z,97361.53
2022-09-15T19:12:51.107Z,97363.50
2022-09-15T19:15:17.993Z,97364.91
2022-09-15T19:17:45.069Z,97367.53
2022-09-15T19:20:15.016Z,97359.41
2022-09-15T19:22:42.550Z,97362.63
2022-09-15T19:25:11.322Z,97359.38
2022-09-15T19:27:38.673Z,97368.56
2022-09-15T19:30:07.617Z,97373.03
2022-09-15T19:32:34.567Z,97374.66
2022-09-15T19:35:01.271Z,97365.66
2022-09-15T19:37:30.629Z,97364.31
2022-09-15T19:39:57.351Z,97361.66
2022-09-15T19:42:23.970Z,97368.44
2022-09-15T19:44:50.570Z,97367.28
2022-09-15T19:47:17.133Z,97359.88
2022-09-15T19:49:43.750Z,97376.03
2022-09-15T19:52:10.531Z,97369.03
2022-09-15T19:54:37.129Z,97364.22
2022-09-15T19:57:04.177Z,97368.09
2022-09-15T19:59:31.834Z,97366.09
2022-09-15T20:02:00.163Z,97380.53
2022-09-15T20:04:28.100Z,97383.06
2022-09-15T20:06:54.998Z,97374.38
2022-09-15T20:09:21.688Z,97384.13
2022-09-15T20:11:48.236Z,97367.41
2022-09-15T20:14:14.883Z,97387.84
2022-09-15T20:16:41.470Z,97396.00
2022-09-15T20:19:08.235Z,97394.25
2022-09-15T20:21:53.242Z,97383.44
2022-09-15T20:24:21.004Z,97383.66
2022-09-15T20:26:47.922Z,97393.38
2022-09-15T20:29:14.491Z,97391.34
2022-09-15T20:31:41.393Z,97380.47
2022-09-15T20:34:08.492Z,97381.69
2022-09-15T20:36:38.700Z,97392.22
2022-09-15T20:39:09.399Z,97385.63
2022-09-15T20:41:36.935Z,97383.16
2022-09-15T20:44:03.734Z,97395.31
2022-09-15T20:46:31.327Z,97402.88
2022-09-15T20:48:57.954Z,97399.66
2022-09-15T20:51:27.925Z,97406.16
2022-09-15T20:53:56.322Z,97402.78
2022-09-15T20:56:25.578Z,97404.19
2022-09-15T20:58:58.553Z,97417.53
2022-09-15T21:01:37.607Z,97414.09
2022-09-15T21:04:05.477Z,97420.38
2022-09-15T21:06:32.829Z,97402.72
2022-09-15T21:08:59.512Z,97413.06
2022-09-15T21:11:28.033Z,97411.44
2022-09-15T21:13:55.519Z,97421.28
2022-09-15T21:16:24.578Z,97409.19
2022-09-15T21:18:52.501Z,97408.75
2022-09-15T21:21:24.638Z,97410.81
2022-09-15T21:23:56.512Z,97431.75
2022-09-15T21:26:28.177Z,97422.97
2022-09-15T21:28:56.019Z,97419.22
2022-09-15T21:31:31.273Z,97410.13
2022-09-15T21:33:58.327Z,97417.66
2022-09-15T21:36:29.929Z,97414.56
2022-09-15T21:38:58.927Z,97412.72
2022-09-15T21:41:29.058Z,97411.16
2022-09-15T21:43:58.018Z,97423.91
2022-09-15T21:46:26.888Z,97408.69
2022-09-15T21:48:55.571Z,97407.41
2022-09-15T21:51:25.063Z,97393.72
2022-09-15T21:53:56.730Z,97403.25
2022-09-15T21:56:27.292Z,97412.16
2022-09-15T21:58:54.576Z,97404.31
2022-09-15T22:01:28.103Z,97402.53
2022-09-15T22:04:00.114Z,97408.31
2022-09-15T22:06:31.785Z,97409.66
2022-09-15T22:09:01.070Z,97400.38
2022-09-15T22:11:27.709Z,97398.38
2022-09-15T22:13:54.381Z,97406.34
2022-09-15T22:16:23.913Z,97403.03
2022-09-15T22:18:51.705Z,97410.22
2022-09-15T22:21:31.424Z,97411.66
2022-09-15T22:23:59.582Z,97409.31
2022-09-15T22:26:29.428Z,97409.41
2022-09-15T22:28:58.136Z,97402.75
2022-09-15T22:31:25.977Z,97416.69
2022-09-15T22:33:52.962Z,97408.50
2022-09-15T22:36:29.675Z,97405.75
2022-09-15T22:39:07.699Z,97413.09
2022-09-15T22:41:37.311Z,97405.47
2022-09-15T22:44:04.428Z,97406.09
2022-09-15T22:46:31.551Z,97413.00
2022-09-15T22:48:58.351Z,97414.22
2022-09-15T22:51:25.156Z,97410.25
2022-09-15T22:53:56.951Z,97410.38
2022-09-15T22:56:25.926Z,97406.31
2022-09-15T22:58:53.114Z,97418.19
2022-09-15T23:01:22.666Z,97412.72
2022-09-15T23:04:00.449Z,97406.19
2022-09-15T23:06:31.341Z,97408.63
2022-09-15T23:09:00.701Z,97405.38
2022-09-15T23:11:28.915Z,97412.41
2022-09-15T23:13:56.261Z,97405.81
2022-09-15T23:16:24.275Z,97409.16
2022-09-15T23:18:51.514Z,97396.38
2022-09-15T23:21:18.341Z,97400.44
2022-09-15T23:23:47.601Z,97406.84
2022-09-15T23:26:17.294Z,97399.97
2022-09-15T23:28:44.003Z,97405.22
2022-09-15T23:31:12.868Z,97401.78
2022-09-15T23:33:40.008Z,97412.06
2022-09-15T23:36:08.920Z,97410.72
2022-09-15T23:38:39.778Z,97415.38
2022-09-15T23:41:07.620Z,97411.97
2022-09-15T23:43:34.666Z,97417.00
2022-09-15T23:46:01.698Z,97403.25
2022-09-15T23:48:28.640Z,97411.69
2022-09-15T23:50:55.277Z,97407.81
2022-09-15T23:53:21.848Z,97415.03
2022-09-15T23:55:48.622Z,97411.78
2022-09-15T23:58:15.126Z,97412.78
